createdAt,value
2023-04-22T00:02:40.082Z,7.12
2023-04-22T00:07:43.494Z,7.00
2023-04-22T00:12:46.776Z,6.86
2023-04-22T00:17:49.853Z,6.67
2023-04-22T00:22:53.204Z,6.58
2023-04-22T00:27:56.344Z,6.41
2023-04-22T00:32:59.567Z,6.31
2023-04-22T00:38:02.850Z,6.26
2023-04-22T00:43:08.595Z,7.10
2023-04-22T00:48:13.607Z,9.76
2023-04-22T00:53:16.745Z,11.35
2023-04-22T00:58:22.845Z,11.49
2023-04-22T01:03:30.779Z,9.75
2023-04-22T01:08:35.018Z,8.51
2023-04-22T01:13:38.584Z,7.62
2023-04-22T01:18:42.410Z,6.93
2023-04-22T01:23:45.623Z,6.41
2023-04-22T01:28:49.160Z,6.03
2023-04-22T01:33:52.772Z,5.77
2023-04-22T01:38:56.504Z,5.60
2023-04-22T01:44:03.181Z,5.50
2023-04-22T01:49:06.273Z,5.43
2023-04-22T01:54:10.709Z,5.34
2023-04-22T01:59:13.818Z,6.14
2023-04-22T02:04:17.135Z,8.73
2023-04-22T02:09:20.163Z,10.32
2023-04-22T02:14:23.283Z,10.43
2023-04-22T02:19:26.626Z,8.58
2023-04-22T02:24:29.758Z,7.40
2023-04-22T02:29:32.862Z,6.67
2023-04-22T02:34:36.797Z,6.11
2023-04-22T02:39:40.130Z,5.67
2023-04-22T02:44:43.638Z,5.32
2023-04-22T02:49:46.827Z,5.04
2023-04-22T02:54:49.838Z,4.81
2023-04-22T02:59:54.387Z,4.62
2023-04-22T03:04:57.483Z,4.47
2023-04-22T03:10:00.606Z,5.32
2023-04-22T03:15:04.709Z,8.31
2023-04-22T03:20:09.140Z,9.73
2023-04-22T03:25:12.972Z,9.67
2023-04-22T03:30:16.381Z,7.87
2023-04-22T03:35:20.886Z,6.75
2023-04-22T03:40:23.973Z,6.00
2023-04-22T03:45:27.450Z,5.44
2023-04-22T03:50:30.669Z,5.00
2023-04-22T03:55:34.792Z,4.67
2023-04-22T04:00:37.899Z,4.38
2023-04-22T04:05:41.025Z,4.18
2023-04-22T04:10:44.011Z,5.04
2023-04-22T04:15:47.567Z,7.84
2023-04-22T04:20:50.725Z,9.58
2023-04-22T04:25:55.810Z,9.83
2023-04-22T04:31:00.527Z,8.18
2023-04-22T04:36:03.830Z,7.18
2023-04-22T04:41:08.892Z,6.58
2023-04-22T04:46:12.041Z,6.23
2023-04-22T04:51:15.972Z,6.05
2023-04-22T04:56:19.752Z,6.00
2023-04-22T05:01:23.157Z,5.99
2023-04-22T05:06:27.319Z,6.04
2023-04-22T05:11:30.494Z,6.14
2023-04-22T05:16:33.661Z,7.34
2023-04-22T05:21:36.707Z,10.06
2023-04-22T05:26:39.839Z,11.68
2023-04-22T05:31:43.388Z,11.97
2023-04-22T05:36:46.433Z,10.54
2023-04-22T05:41:49.950Z,9.54
2023-04-22T05:46:52.963Z,8.94
2023-04-22T05:51:56.087Z,8.51
2023-04-22T05:56:59.379Z,8.26
2023-04-22T06:02:02.522Z,8.16
2023-04-22T06:07:06.437Z,8.20
2023-04-22T06:12:12.158Z,8.31
2023-04-22T06:17:15.488Z,8.42
2023-04-22T06:22:18.794Z,8.53
2023-04-22T06:27:21.917Z,8.77
2023-04-22T06:32:25.109Z,8.99
2023-04-22T06:37:28.131Z,9.19
2023-04-22T06:42:31.322Z,9.47
2023-04-22T06:47:34.597Z,9.76
2023-04-22T06:52:37.749Z,10.05
2023-04-22T06:57:41.051Z,10.36
2023-04-22T07:02:44.540Z,10.67
2023-04-22T07:07:47.974Z,11.01
2023-04-22T07:12:51.192Z,11.24
2023-04-22T07:17:54.417Z,11.49
2023-04-22T07:22:57.645Z,11.75
2023-04-22T07:28:00.709Z,11.96
2023-04-22T07:33:04.085Z,12.10
2023-04-22T07:38:09.258Z,12.32
2023-04-22T07:43:13.002Z,12.57
2023-04-22T07:48:16.306Z,12.77
2023-04-22T07:53:20.952Z,12.97
2023-04-22T07:58:23.967Z,13.20
2023-04-22T08:03:27.699Z,13.45
2023-04-22T08:08:30.887Z,13.67
2023-04-22T08:13:34.100Z,13.87
2023-04-22T08:18:37.203Z,14.02
2023-04-22T08:23:40.657Z,14.20
2023-04-22T08:28:44.049Z,14.38
2023-04-22T08:33:47.246Z,14.54
2023-04-22T08:38:50.593Z,14.74
2023-04-22T08:43:54.276Z,14.91
2023-04-22T08:49:04.138Z,15.11
2023-04-22T08:54:07.157Z,15.20
2023-04-22T08:59:12.432Z,15.33
2023-04-22T09:04:16.358Z,15.61
2023-04-22T09:09:20.149Z,15.85
2023-04-22T09:14:23.587Z,16.07
2023-04-22T09:19:26.774Z,16.33
2023-04-22T09:24:30.285Z,16.52
2023-04-22T09:29:33.492Z,16.74
2023-04-22T09:34:55.788Z,17.13
2023-04-22T09:39:58.958Z,17.38
2023-04-22T09:45:02.361Z,17.40
2023-04-22T09:50:06.761Z,17.49
2023-04-22T09:55:10.118Z,17.72
2023-04-22T10:00:15.290Z,17.73
2023-04-22T10:05:18.618Z,17.67
2023-04-22T10:10:22.929Z,17.80
2023-04-22T10:15:27.401Z,18.05
2023-04-22T10:20:33.934Z,18.05
2023-04-22T10:25:37.179Z,18.10
2023-04-22T10:30:40.475Z,18.21
2023-04-22T10:36:15.248Z,18.47
2023-04-22T10:41:25.728Z,18.71
2023-04-22T10:46:35.570Z,18.83
2023-04-22T10:51:47.773Z,18.94
2023-04-22T10:57:16.689Z,19.04
2023-04-22T11:02:22.048Z,19.28
2023-04-22T11:07:32.184Z,19.52
2023-04-22T11:12:44.067Z,19.78
2023-04-22T11:17:51.254Z,19.76
2023-04-22T11:22:57.313Z,19.58
2023-04-22T11:28:00.514Z,19.83
2023-04-22T11:33:03.806Z,20.26
2023-04-22T11:38:08.878Z,20.58
2023-04-22T11:43:12.198Z,20.78
2023-04-22T11:48:17.041Z,20.89
2023-04-22T11:53:24.363Z,20.95
2023-04-22T11:58:28.482Z,21.03
2023-04-22T12:03:34.705Z,21.20
2023-04-22T12:08:42.605Z,21.26
2023-04-22T12:13:46.914Z,21.40
2023-04-22T12:18:52.969Z,21.60
2023-04-22T12:23:59.874Z,21.70
2023-04-22T12:29:03.097Z,21.73
2023-04-22T12:34:06.447Z,21.64
2023-04-22T12:39:10.945Z,21.65
2023-04-22T12:44:14.153Z,21.77
2023-04-22T12:49:17.292Z,21.70
2023-04-22T12:54:21.893Z,21.62
2023-04-22T12:59:25.550Z,21.74
2023-04-22T13:04:28.766Z,21.74
2023-04-22T13:09:32.140Z,22.03
2023-04-22T13:14:35.456Z,22.16
2023-04-22T13:19:39.095Z,22.07
2023-04-22T13:24:42.476Z,21.84
2023-04-22T13:29:46.215Z,21.88
2023-04-22T13:34:49.514Z,22.07
2023-04-22T13:39:53.226Z,22.28
2023-04-22T13:44:56.232Z,22.50
2023-04-22T13:50:01.032Z,23.04
2023-04-22T13:55:05.009Z,23.50
2023-04-22T14:00:09.848Z,23.58
2023-04-22T14:05:13.120Z,23.39
2023-04-22T14:10:20.454Z,23.31
2023-04-22T14:15:24.790Z,23.66
2023-04-22T14:20:28.009Z,23.75
2023-04-22T14:25:32.247Z,23.67
2023-04-22T14:30:35.381Z,23.91
2023-04-22T14:35:39.095Z,23.98
2023-04-22T14:40:42.492Z,23.67
2023-04-22T14:45:47.842Z,23.57
2023-04-22T14:50:51.680Z,23.19
2023-04-22T14:55:56.110Z,23.27
2023-04-22T15:01:00.341Z,23.79
2023-04-22T15:06:04.125Z,24.35
2023-04-22T15:11:07.374Z,24.50
2023-04-22T15:16:10.702Z,24.17
2023-04-22T15:21:13.903Z,23.90
2023-04-22T15:26:17.095Z,23.94
2023-04-22T15:31:21.390Z,23.87
2023-04-22T15:36:24.747Z,24.05
2023-04-22T15:41:27.852Z,24.05
2023-04-22T15:46:35.113Z,24.51
2023-04-22T15:51:38.261Z,24.90
2023-04-22T15:56:42.090Z,24.72
2023-04-22T16:01:46.296Z,24.57
2023-04-22T16:06:50.921Z,24.39
2023-04-22T16:11:56.220Z,24.44
2023-04-22T16:16:59.584Z,24.59
2023-04-22T16:22:03.348Z,24.68
2023-04-22T16:27:07.173Z,24.63
2023-04-22T16:32:11.312Z,24.55
2023-04-22T16:37:17.513Z,24.87
2023-04-22T16:42:20.619Z,25.10
2023-04-22T16:47:23.897Z,25.39
2023-04-22T16:52:27.039Z,25.60
2023-04-22T16:57:30.211Z,25.67
2023-04-22T17:02:34.274Z,25.60
2023-04-22T17:07:37.677Z,25.44
2023-04-22T17:12:40.964Z,24.93
2023-04-22T17:17:44.322Z,24.09
2023-04-22T17:22:47.592Z,23.18
2023-04-22T17:27:50.601Z,22.41
2023-04-22T17:32:53.949Z,21.79
2023-04-22T17:37:58.037Z,21.23
2023-04-22T17:43:01.597Z,20.66
2023-04-22T17:48:04.990Z,20.20
2023-04-22T17:53:08.287Z,19.85
2023-04-22T17:58:11.501Z,19.52
2023-04-22T18:03:14.949Z,19.15
2023-04-22T18:08:18.113Z,18.95
2023-04-22T18:13:21.219Z,18.72
2023-04-22T18:18:24.327Z,18.32
2023-04-22T18:23:29.479Z,18.00
2023-04-22T18:28:32.586Z,17.67
2023-04-22T18:33:36.754Z,17.34
2023-04-22T18:38:40.664Z,17.12
2023-04-22T18:43:43.847Z,16.92
2023-04-22T18:48:47.309Z,16.61
2023-04-22T18:53:50.569Z,16.25
2023-04-22T18:58:55.316Z,16.03
2023-04-22T19:04:02.027Z,15.75
2023-04-22T19:09:05.338Z,15.49
2023-04-22T19:14:08.585Z,15.41
2023-04-22T19:19:12.555Z,15.19
2023-04-22T19:24:16.442Z,14.91
2023-04-22T19:29:19.795Z,14.68
2023-04-22T19:34:23.323Z,14.51
2023-04-22T19:39:26.419Z,14.39
2023-04-22T19:44:30.761Z,14.25
2023-04-22T19:49:34.918Z,13.89
2023-04-22T19:54:41.641Z,13.61
2023-04-22T19:59:47.212Z,13.36
2023-04-22T20:04:50.966Z,13.18
2023-04-22T20:09:56.645Z,13.05
2023-04-22T20:15:00.247Z,12.98
2023-04-22T20:20:07.319Z,12.81
2023-04-22T20:25:17.326Z,12.59
2023-04-22T20:30:20.939Z,12.47
2023-04-22T20:35:24.867Z,12.40
2023-04-22T20:40:30.012Z,12.28
2023-04-22T20:45:33.368Z,12.14
2023-04-22T20:50:36.853Z,11.93
2023-04-22T20:55:40.680Z,11.72
2023-04-22T21:00:44.175Z,11.62
2023-04-22T21:05:48.051Z,11.53
2023-04-22T21:10:57.012Z,11.39
2023-04-22T21:16:07.730Z,11.29
2023-04-22T21:21:12.573Z,11.13
2023-04-22T21:26:18.692Z,10.92
2023-04-22T21:31:23.512Z,10.83
2023-04-22T21:36:27.326Z,10.72
2023-04-22T21:41:31.547Z,10.62
2023-04-22T21:46:34.728Z,10.49
2023-04-22T21:51:37.964Z,10.34
2023-04-22T21:56:41.602Z,10.16
2023-04-22T22:01:44.857Z,10.02
2023-04-22T22:06:49.147Z,9.86
2023-04-22T22:11:52.341Z,9.79
2023-04-22T22:16:56.014Z,9.71
2023-04-22T22:21:59.264Z,9.59
2023-04-22T22:27:03.323Z,9.53
2023-04-22T22:32:07.814Z,9.42
2023-04-22T22:37:11.050Z,9.31
2023-04-22T22:42:15.073Z,9.18
2023-04-22T22:47:19.107Z,9.06
2023-04-22T22:52:22.918Z,8.89
2023-04-22T22:57:26.456Z,8.75
2023-04-22T23:02:29.647Z,8.69
2023-04-22T23:07:33.478Z,8.68
2023-04-22T23:12:36.581Z,8.65
2023-04-22T23:17:40.138Z,8.61
2023-04-22T23:22:45.095Z,8.51
2023-04-22T23:27:49.853Z,8.43
2023-04-22T23:32:57.670Z,8.35
2023-04-22T23:38:04.192Z,9.00
2023-04-22T23:43:07.296Z,11.25
2023-04-22T23:48:10.631Z,12.77
2023-04-22T23:53:13.715Z,12.94
2023-04-22T23:58:17.132Z,11.39
